Time;durP1;ratioP1;P1;durP2;ratioP2;P2;SDS_P1;SDS_P2;PMS_P1;PMS_P2;Temp;Humidity;BMP_temperature;BMP_pressure;BME280_temperature;BME280_humidity;BME280_pressure;Samples;Min_cycle;Max_cycle;Signal;HPM_P1;HPM_P2
2023/03/20 00:01:02;;;;;;;18.73;13.97;;;;;;;;;;6247719;28;20222;-53
2023/03/20 00:04:03;;;;;;;19.87;14.03;;;;;;;;;;6233451;28;20210;-54
2023/03/20 00:07:04;;;;;;;20.60;14.17;;;;;;;;;;6233090;28;20198;-55
2023/03/20 00:10:05;;;;;;;18.03;12.77;;;;;;;;;;6233000;28;20253;-55
2023/03/20 00:13:07;;;;;;;17.67;13.27;;;;;;;;;;6244057;28;20199;-54
2023/03/20 00:16:10;;;;;;;15.33;12.63;;;;;;;;;;6264452;28;20203;-54
2023/03/20 00:19:18;;;;;;;15.77;12.50;;;;;;;;;;6241244;28;20191;-55
2023/03/20 00:22:19;;;;;;;16.23;12.33;;;;;;;;;;6250867;28;20207;-55
2023/03/20 00:25:22;;;;;;;17.57;12.30;;;;;;;;;;6252579;28;20255;-54
2023/03/20 00:28:37;;;;;;;22.67;13.93;;;;;;;;;;6246227;28;20286;-54
2023/03/20 00:31:39;;;;;;;20.47;14.77;;;;;;;;;;6232613;28;20267;-55
2023/03/20 00:34:40;;;;;;;21.27;13.70;;;;;;;;;;6239529;28;20224;-56
2023/03/20 00:37:41;;;;;;;20.37;15.17;;;;;;;;;;6252634;28;20228;-55
2023/03/20 00:40:42;;;;;;;20.57;13.23;;;;;;;;;;6227568;28;20194;-56
2023/03/20 00:43:43;;;;;;;18.93;13.13;;;;;;;;;;6229429;28;20221;-55
2023/03/20 00:46:45;;;;;;;18.57;12.93;;;;;;;;;;6259610;28;20194;-54
2023/03/20 00:49:47;;;;;;;17.77;13.07;;;;;;;;;;6244721;28;20188;-55
2023/03/20 00:52:48;;;;;;;18.07;13.20;;;;;;;;;;6248906;28;20201;-53
2023/03/20 00:55:49;;;;;;;17.83;13.37;;;;;;;;;;6232706;28;20194;-55
2023/03/20 00:58:51;;;;;;;18.30;12.83;;;;;;;;;;6240419;28;20186;-54
2023/03/20 01:01:52;;;;;;;16.70;13.40;;;;;;;;;;6259101;28;20225;-54
2023/03/20 01:04:53;;;;;;;18.00;13.13;;;;;;;;;;6259443;28;20333;-55
2023/03/20 01:07:54;;;;;;;19.60;13.67;;;;;;;;;;6254707;28;20277;-55
2023/03/20 01:10:57;;;;;;;15.77;12.77;;;;;;;;;;6263737;28;20220;-55
2023/03/20 01:13:59;;;;;;;13.50;11.47;;;;;;;;;;6249386;28;20194;-55
2023/03/20 01:17:00;;;;;;;15.80;12.23;;;;;;;;;;6232333;28;20221;-56
2023/03/20 01:20:01;;;;;;;15.50;12.60;;;;;;;;;;6225955;28;20186;-54
2023/03/20 01:23:02;;;;;;;16.93;12.37;;;;;;;;;;6248420;28;20252;-55
2023/03/20 01:26:03;;;;;;;17.47;13.60;;;;;;;;;;6263050;28;20255;-54
2023/03/20 01:29:12;;;;;;;17.57;12.70;;;;;;;;;;6258611;28;20193;-55
2023/03/20 01:32:15;;;;;;;16.83;13.20;;;;;;;;;;6238862;28;20234;-54
2023/03/20 01:35:17;;;;;;;31.27;17.03;;;;;;;;;;6236522;28;20202;-55
2023/03/20 01:38:20;;;;;;;30.47;17.73;;;;;;;;;;6246222;28;20190;-55
2023/03/20 01:41:22;;;;;;;34.37;18.03;;;;;;;;;;6246912;28;20203;-55
2023/03/20 01:44:24;;;;;;;29.33;17.37;;;;;;;;;;6248518;28;20214;-55
2023/03/20 01:47:26;;;;;;;31.87;17.93;;;;;;;;;;6248068;28;20194;-54
2023/03/20 01:50:29;;;;;;;37.37;17.67;;;;;;;;;;6247932;28;20195;-55
2023/03/20 01:53:30;;;;;;;32.53;17.67;;;;;;;;;;6233739;28;20188;-54
2023/03/20 01:56:33;;;;;;;41.10;18.47;;;;;;;;;;6230322;28;20194;-54
2023/03/20 01:59:45;;;;;;;41.10;19.07;;;;;;;;;;6242631;28;20199;-54
2023/03/20 02:02:47;;;;;;;24.63;15.57;;;;;;;;;;6240329;28;20259;-55
2023/03/20 02:05:49;;;;;;;24.40;15.97;;;;;;;;;;6247984;28;20202;-54
2023/03/20 02:08:51;;;;;;;24.13;14.90;;;;;;;;;;6224650;28;20195;-55
2023/03/20 02:11:53;;;;;;;29.37;17.33;;;;;;;;;;6240183;28;20186;-54
2023/03/20 02:14:55;;;;;;;31.80;15.37;;;;;;;;;;6233203;28;20186;-53
2023/03/20 02:17:56;;;;;;;23.67;15.07;;;;;;;;;;6232133;28;20272;-54
2023/03/20 02:21:00;;;;;;;20.80;13.80;;;;;;;;;;6248525;28;20186;-55
2023/03/20 02:24:20;;;;;;;22.77;13.47;;;;;;;;;;6231136;28;20242;-54
2023/03/20 02:27:28;;;;;;;15.43;12.53;;;;;;;;;;6272030;28;20233;-56
2023/03/20 02:30:58;;;;;;;16.90;12.50;;;;;;;;;;6246452;28;20253;-54
2023/03/20 02:34:07;;;;;;;18.57;13.53;;;;;;;;;;6233959;28;20196;-55
2023/03/20 02:37:11;;;;;;;16.93;12.37;;;;;;;;;;6251914;28;20285;-54
2023/03/20 02:40:12;;;;;;;19.00;13.50;;;;;;;;;;6228172;28;20191;-52
2023/03/20 02:43:30;;;;;;;15.80;13.27;;;;;;;;;;6268439;28;20214;-56
2023/03/20 02:46:56;;;;;;;22.13;14.90;;;;;;;;;;6252690;28;20187;-55
2023/03/20 02:50:16;;;;;;;18.80;13.77;;;;;;;;;;6236315;28;20285;-54
2023/03/20 02:53:17;;;;;;;20.17;14.90;;;;;;;;;;6242033;28;20222;-54
2023/03/20 02:56:47;;;;;;;16.33;12.93;;;;;;;;;;6238823;28;20252;-56
2023/03/20 02:59:57;;;;;;;16.40;12.60;;;;;;;;;;6232748;28;20194;-51
2023/03/20 03:03:05;;;;;;;14.57;12.47;;;;;;;;;;6244062;28;20214;-55
2023/03/20 03:06:24;;;;;;;15.87;12.00;;;;;;;;;;6256915;28;20230;-55
2023/03/20 03:09:30;;;;;;;13.07;11.67;;;;;;;;;;6243276;28;20199;-55
2023/03/20 03:12:33;;;;;;;15.47;11.60;;;;;;;;;;6255550;28;20215;-55
2023/03/20 03:15:37;;;;;;;15.10;11.93;;;;;;;;;;6251374;28;20229;-55
2023/03/20 03:18:40;;;;;;;14.47;11.80;;;;;;;;;;6250482;28;20187;-55
2023/03/20 03:21:41;;;;;;;15.13;12.70;;;;;;;;;;6258385;28;20187;-56
2023/03/20 03:24:47;;;;;;;14.67;12.33;;;;;;;;;;6254847;28;20202;-56
2023/03/20 03:27:50;;;;;;;15.67;13.07;;;;;;;;;;6249010;28;20186;-56
2023/03/20 03:30:52;;;;;;;13.83;12.27;;;;;;;;;;6250660;28;20244;-56
2023/03/20 03:33:55;;;;;;;14.17;12.67;;;;;;;;;;6232863;28;20218;-53
2023/03/20 03:36:59;;;;;;;15.03;12.83;;;;;;;;;;6247090;28;20244;-55
2023/03/20 03:40:03;;;;;;;14.87;12.17;;;;;;;;;;6263948;28;20194;-55
2023/03/20 03:43:19;;;;;;;14.57;12.93;;;;;;;;;;6266425;28;20297;-54
2023/03/20 03:46:25;;;;;;;13.60;11.57;;;;;;;;;;6283297;28;20223;-51
2023/03/20 03:49:28;;;;;;;14.47;12.03;;;;;;;;;;6250386;28;20187;-54
2023/03/20 03:52:31;;;;;;;13.67;11.83;;;;;;;;;;6242929;28;20197;-55
2023/03/20 03:55:35;;;;;;;15.43;12.57;;;;;;;;;;6243911;28;20193;-55
2023/03/20 03:58:39;;;;;;;14.27;11.77;;;;;;;;;;6236688;28;20286;-53
2023/03/20 04:01:43;;;;;;;13.83;12.27;;;;;;;;;;6246568;28;20218;-55
2023/03/20 04:04:46;;;;;;;13.17;11.30;;;;;;;;;;6241871;28;20186;-55
2023/03/20 04:07:47;;;;;;;14.50;12.07;;;;;;;;;;6251079;28;20183;-55
2023/03/20 04:10:49;;;;;;;15.73;13.13;;;;;;;;;;6231341;28;20190;-56
2023/03/20 04:13:51;;;;;;;14.00;12.27;;;;;;;;;;6249182;28;20182;-56
2023/03/20 04:16:52;;;;;;;27.43;19.53;;;;;;;;;;6260518;28;20202;-56
2023/03/20 04:19:53;;;;;;;29.37;18.77;;;;;;;;;;6221990;28;20199;-55
2023/03/20 04:22:54;;;;;;;23.70;18.13;;;;;;;;;;6227245;28;20214;-56
2023/03/20 04:25:55;;;;;;;31.77;20.07;;;;;;;;;;6264901;28;20194;-56
2023/03/20 04:28:56;;;;;;;26.17;17.03;;;;;;;;;;6252589;28;20191;-56
2023/03/20 04:31:58;;;;;;;24.67;17.10;;;;;;;;;;6241815;28;20234;-56
2023/03/20 04:34:59;;;;;;;15.53;12.83;;;;;;;;;;6219022;28;20543;-56
2023/03/20 04:38:00;;;;;;;13.93;11.37;;;;;;;;;;6261048;28;20259;-56
2023/03/20 04:41:02;;;;;;;13.73;12.07;;;;;;;;;;6251290;28;20247;-55
2023/03/20 04:44:03;;;;;;;14.67;11.57;;;;;;;;;;6248102;28;20210;-56
2023/03/20 04:47:05;;;;;;;12.90;11.50;;;;;;;;;;6233557;28;20191;-56
2023/03/20 04:50:06;;;;;;;13.50;11.63;;;;;;;;;;6259267;28;20242;-58
2023/03/20 04:53:07;;;;;;;12.47;10.77;;;;;;;;;;6239625;28;20202;-57
2023/03/20 04:56:09;;;;;;;13.80;12.30;;;;;;;;;;6254622;28;20198;-58
2023/03/20 04:59:10;;;;;;;12.83;10.90;;;;;;;;;;6258380;28;20199;-58
2023/03/20 05:02:13;;;;;;;12.97;11.60;;;;;;;;;;6230022;28;20305;-56
2023/03/20 05:05:14;;;;;;;12.10;10.80;;;;;;;;;;6248923;28;20196;-55
2023/03/20 05:08:15;;;;;;;15.43;12.50;;;;;;;;;;6241883;28;20199;-54
2023/03/20 05:11:16;;;;;;;15.87;11.90;;;;;;;;;;6241107;28;20194;-55
2023/03/20 05:14:17;;;;;;;12.83;11.53;;;;;;;;;;6230076;28;20186;-52
2023/03/20 05:17:19;;;;;;;13.80;12.13;;;;;;;;;;6236770;28;20198;-54
2023/03/20 05:20:20;;;;;;;14.93;12.03;;;;;;;;;;6231921;28;20233;-54
2023/03/20 05:23:21;;;;;;;14.87;13.00;;;;;;;;;;6231835;28;20218;-54
2023/03/20 05:26:22;;;;;;;13.33;11.97;;;;;;;;;;6227874;28;20198;-57
2023/03/20 05:29:23;;;;;;;13.97;12.27;;;;;;;;;;6249864;28;20189;-54
2023/03/20 05:32:24;;;;;;;13.20;11.27;;;;;;;;;;6264933;28;20256;-52
2023/03/20 05:35:25;;;;;;;14.07;12.53;;;;;;;;;;6231792;28;20191;-49
2023/03/20 05:38:27;;;;;;;14.17;12.23;;;;;;;;;;6226752;28;20201;-54
2023/03/20 05:41:28;;;;;;;15.17;11.60;;;;;;;;;;6234306;28;20186;-52
2023/03/20 05:44:29;;;;;;;12.13;10.83;;;;;;;;;;6224581;28;20214;-52
2023/03/20 05:47:30;;;;;;;13.17;11.83;;;;;;;;;;6264611;28;20203;-51
2023/03/20 05:50:31;;;;;;;15.60;12.20;;;;;;;;;;6245452;28;20194;-52
2023/03/20 05:53:32;;;;;;;17.07;12.63;;;;;;;;;;6231266;28;20252;-52
2023/03/20 05:56:33;;;;;;;18.20;12.23;;;;;;;;;;6251747;28;20197;-51
2023/03/20 05:59:35;;;;;;;13.53;12.23;;;;;;;;;;6250975;28;20205;-52
2023/03/20 06:02:36;;;;;;;12.40;10.63;;;;;;;;;;6255133;28;20230;-51
2023/03/20 06:05:37;;;;;;;14.73;12.40;;;;;;;;;;6225675;28;20190;-54
2023/03/20 06:08:38;;;;;;;13.97;12.57;;;;;;;;;;6236619;28;20218;-52
2023/03/20 06:11:39;;;;;;;15.23;12.27;;;;;;;;;;6252384;28;20281;-54
2023/03/20 06:14:40;;;;;;;18.63;12.30;;;;;;;;;;6246290;28;20278;-51
2023/03/20 06:17:41;;;;;;;16.93;12.77;;;;;;;;;;6244923;28;20200;-48
2023/03/20 06:20:42;;;;;;;12.97;11.67;;;;;;;;;;6263839;28;20194;-52
2023/03/20 06:23:43;;;;;;;12.30;11.00;;;;;;;;;;6231399;28;20213;-54
2023/03/20 06:26:44;;;;;;;14.93;11.13;;;;;;;;;;6230976;28;20217;-51
2023/03/20 06:29:45;;;;;;;12.90;11.47;;;;;;;;;;6228809;28;20233;-51
2023/03/20 06:32:47;;;;;;;15.27;11.60;;;;;;;;;;6233489;28;20221;-51
2023/03/20 06:35:48;;;;;;;14.53;12.23;;;;;;;;;;6243345;28;20281;-51
2023/03/20 06:38:49;;;;;;;13.57;11.83;;;;;;;;;;6233580;28;20205;-51
2023/03/20 06:41:50;;;;;;;12.70;11.13;;;;;;;;;;6247742;28;20194;-51
2023/03/20 06:44:51;;;;;;;12.53;11.23;;;;;;;;;;6245470;28;20298;-50
2023/03/20 06:47:52;;;;;;;13.63;10.83;;;;;;;;;;6228580;28;20201;-51
2023/03/20 06:50:53;;;;;;;14.97;11.87;;;;;;;;;;6234867;28;20204;-48
2023/03/20 06:53:54;;;;;;;13.07;11.47;;;;;;;;;;6227072;28;20277;-52
2023/03/20 06:56:55;;;;;;;14.20;10.60;;;;;;;;;;6267552;28;20193;-52
2023/03/20 06:59:56;;;;;;;12.53;11.33;;;;;;;;;;6253830;28;20206;-50
2023/03/20 07:02:57;;;;;;;14.97;11.63;;;;;;;;;;6232292;28;20249;-50
2023/03/20 07:05:59;;;;;;;14.57;11.23;;;;;;;;;;6229933;28;20214;-48
2023/03/20 07:09:00;;;;;;;20.50;12.13;;;;;;;;;;6225013;28;20214;-51
2023/03/20 07:12:01;;;;;;;13.90;11.67;;;;;;;;;;6230687;28;20285;-52
2023/03/20 07:15:02;;;;;;;12.13;10.73;;;;;;;;;;6224392;28;20191;-50
2023/03/20 07:18:03;;;;;;;13.73;11.60;;;;;;;;;;6256682;28;20198;-50
2023/03/20 07:21:06;;;;;;;15.10;11.53;;;;;;;;;;6224405;28;20206;-50
2023/03/20 07:24:07;;;;;;;12.93;11.13;;;;;;;;;;6248379;28;20222;-50
2023/03/20 07:27:08;;;;;;;11.93;9.87;;;;;;;;;;6240070;28;20186;-52
2023/03/20 07:30:10;;;;;;;13.37;10.20;;;;;;;;;;6260672;28;20250;-51
2023/03/20 07:33:11;;;;;;;14.03;10.57;;;;;;;;;;6221850;28;20203;-51
2023/03/20 07:36:12;;;;;;;13.80;10.93;;;;;;;;;;6230525;28;20198;-52
2023/03/20 07:39:13;;;;;;;13.73;11.77;;;;;;;;;;6229852;28;20202;-49
2023/03/20 07:42:15;;;;;;;13.33;10.93;;;;;;;;;;6248827;28;20214;-48
2023/03/20 07:45:17;;;;;;;15.07;11.40;;;;;;;;;;6222187;28;20220;-51
2023/03/20 07:48:18;;;;;;;14.30;10.10;;;;;;;;;;6225691;28;20210;-49
2023/03/20 07:51:19;;;;;;;13.40;11.37;;;;;;;;;;6231593;28;20205;-51
2023/03/20 07:54:20;;;;;;;12.30;10.53;;;;;;;;;;6248481;28;20193;-49
2023/03/20 07:57:21;;;;;;;14.70;11.27;;;;;;;;;;6245418;28;20194;-49
2023/03/20 08:00:22;;;;;;;12.33;11.03;;;;;;;;;;6225443;28;20206;-51
2023/03/20 08:03:23;;;;;;;13.70;10.87;;;;;;;;;;6259848;28;20213;-51
2023/03/20 08:06:24;;;;;;;11.87;9.93;;;;;;;;;;6225851;28;20282;-48
2023/03/20 08:09:25;;;;;;;15.40;11.53;;;;;;;;;;6262942;28;20182;-48
2023/03/20 08:12:26;;;;;;;11.53;10.33;;;;;;;;;;6227107;28;20281;-51
2023/03/20 08:15:28;;;;;;;13.23;10.43;;;;;;;;;;6256444;28;20193;-49
2023/03/20 08:18:29;;;;;;;11.13;9.60;;;;;;;;;;6245192;28;20187;-50
2023/03/20 08:21:31;;;;;;;10.80;9.70;;;;;;;;;;6222874;28;20287;-52
2023/03/20 08:24:32;;;;;;;15.63;11.07;;;;;;;;;;6246667;28;20222;-51
2023/03/20 08:27:33;;;;;;;13.23;10.63;;;;;;;;;;6247751;28;20228;-49
2023/03/20 08:30:34;;;;;;;14.43;10.67;;;;;;;;;;6263925;28;20246;-49
2023/03/20 08:33:35;;;;;;;11.03;9.83;;;;;;;;;;6254489;28;20199;-52
2023/03/20 08:36:38;;;;;;;12.50;9.93;;;;;;;;;;6223403;28;20209;-48
2023/03/20 08:39:39;;;;;;;12.23;10.07;;;;;;;;;;6224953;28;20230;-52
2023/03/20 08:42:40;;;;;;;12.93;10.57;;;;;;;;;;6246233;28;20269;-54
2023/03/20 08:45:42;;;;;;;13.20;9.67;;;;;;;;;;6221476;28;20191;-49
2023/03/20 08:48:43;;;;;;;9.90;9.00;;;;;;;;;;6250322;28;20192;-48
2023/03/20 08:51:45;;;;;;;12.27;10.57;;;;;;;;;;6221415;28;20211;-49
2023/03/20 08:54:46;;;;;;;11.20;10.10;;;;;;;;;;6224559;28;20198;-49
2023/03/20 08:57:47;;;;;;;13.30;9.43;;;;;;;;;;6254641;28;20193;-48
2023/03/20 09:00:48;;;;;;;13.17;9.70;;;;;;;;;;6222229;28;20200;-53
2023/03/20 09:03:51;;;;;;;11.97;9.13;;;;;;;;;;6216023;28;20229;-50
2023/03/20 09:06:52;;;;;;;13.47;9.53;;;;;;;;;;6222535;28;20203;-49
2023/03/20 09:09:53;;;;;;;12.20;9.57;;;;;;;;;;6259817;28;20190;-49
2023/03/20 09:12:55;;;;;;;10.43;9.27;;;;;;;;;;6253072;28;20275;-50
2023/03/20 09:15:56;;;;;;;10.27;9.23;;;;;;;;;;6230936;28;20198;-49
2023/03/20 09:18:58;;;;;;;12.77;8.67;;;;;;;;;;6222850;28;20276;-51
2023/03/20 09:21:59;;;;;;;9.40;8.50;;;;;;;;;;6232888;28;20226;-51
2023/03/20 09:25:00;;;;;;;15.57;8.83;;;;;;;;;;6250857;28;20227;-49
2023/03/20 09:28:01;;;;;;;10.40;8.57;;;;;;;;;;6239460;28;20195;-49
2023/03/20 09:31:02;;;;;;;9.63;8.33;;;;;;;;;;6262412;28;20237;-52
2023/03/20 09:34:03;;;;;;;8.43;7.60;;;;;;;;;;6234706;28;20715;-50
2023/03/20 09:37:05;;;;;;;11.27;8.67;;;;;;;;;;6243460;28;20456;-51
2023/03/20 09:40:07;;;;;;;9.53;7.40;;;;;;;;;;6221337;28;20200;-48
2023/03/20 09:43:22;;;;;;;11.83;7.93;;;;;;;;;;6242760;28;20222;-53
2023/03/20 09:46:47;;;;;;;10.23;7.33;;;;;;;;;;6244751;28;20187;-52
2023/03/20 09:49:58;;;;;;;8.60;7.10;;;;;;;;;;6236729;28;20191;-48
2023/03/20 09:53:05;;;;;;;8.77;7.03;;;;;;;;;;6245943;28;20195;-51
2023/03/20 09:56:13;;;;;;;9.00;7.50;;;;;;;;;;6243200;28;20205;-51
2023/03/20 09:59:15;;;;;;;10.10;7.67;;;;;;;;;;6242064;28;20202;-54
2023/03/20 10:02:23;;;;;;;10.27;7.43;;;;;;;;;;6226342;28;20214;-51
2023/03/20 10:05:25;;;;;;;9.63;8.20;;;;;;;;;;6228540;28;20222;-52
2023/03/20 10:08:33;;;;;;;11.43;8.33;;;;;;;;;;6245362;28;20195;-50
2023/03/20 10:11:50;;;;;;;15.33;9.73;;;;;;;;;;6245648;28;20201;-52
2023/03/20 10:15:03;;;;;;;16.77;9.80;;;;;;;;;;6258235;28;20195;-52
2023/03/20 10:18:30;;;;;;;10.33;8.20;;;;;;;;;;6232904;28;20205;-51
2023/03/20 10:21:48;;;;;;;10.30;8.43;;;;;;;;;;6239433;28;20206;-50
2023/03/20 10:24:59;;;;;;;7.53;5.30;;;;;;;;;;6260409;28;20195;-49
2023/03/20 10:28:06;;;;;;;6.80;5.17;;;;;;;;;;6247224;28;20180;-49
2023/03/20 10:31:17;;;;;;;6.10;4.80;;;;;;;;;;6240611;28;20326;-51
2023/03/20 10:34:40;;;;;;;8.97;4.57;;;;;;;;;;6234843;28;20199;-51
2023/03/20 10:37:41;;;;;;;5.27;4.70;;;;;;;;;;6228888;28;20187;-51
2023/03/20 10:40:43;;;;;;;6.20;4.17;;;;;;;;;;6242253;28;20190;-52
2023/03/20 10:43:45;;;;;;;6.87;4.43;;;;;;;;;;6246760;28;20219;-51
2023/03/20 10:46:48;;;;;;;5.47;4.30;;;;;;;;;;6243921;28;20210;-52
2023/03/20 10:49:51;;;;;;;7.63;4.50;;;;;;;;;;6250937;28;20196;-48
2023/03/20 10:52:54;;;;;;;7.73;4.57;;;;;;;;;;6236488;28;20196;-51
2023/03/20 10:55:57;;;;;;;10.43;4.23;;;;;;;;;;6240517;28;20190;-50
2023/03/20 10:59:14;;;;;;;7.63;4.57;;;;;;;;;;6236363;28;20209;-51
2023/03/20 11:02:16;;;;;;;5.20;4.30;;;;;;;;;;6239638;28;20244;-50
2023/03/20 11:05:23;;;;;;;5.90;4.27;;;;;;;;;;6244965;28;20191;-50
2023/03/20 11:08:29;;;;;;;4.53;3.87;;;;;;;;;;6237490;28;20331;-52
2023/03/20 11:11:33;;;;;;;4.47;3.93;;;;;;;;;;6251237;28;20188;-51
2023/03/20 11:14:36;;;;;;;5.87;3.83;;;;;;;;;;6248702;28;20234;-48
2023/03/20 11:17:37;;;;;;;4.63;3.87;;;;;;;;;;6249155;28;20191;-49
2023/03/20 11:20:43;;;;;;;5.77;4.43;;;;;;;;;;6231982;28;20209;-51
2023/03/20 11:23:44;;;;;;;3.83;3.37;;;;;;;;;;6235362;28;20242;-51
2023/03/20 11:26:45;;;;;;;5.67;3.53;;;;;;;;;;6248548;28;20213;-49
2023/03/20 11:29:48;;;;;;;5.73;3.37;;;;;;;;;;6240217;28;20261;-50
2023/03/20 11:32:50;;;;;;;6.60;3.13;;;;;;;;;;6245485;28;20195;-51
2023/03/20 11:35:53;;;;;;;4.30;3.53;;;;;;;;;;6246227;28;20241;-51
2023/03/20 11:38:58;;;;;;;6.13;3.40;;;;;;;;;;6240794;28;20226;-52
2023/03/20 11:42:00;;;;;;;2.57;2.37;;;;;;;;;;6235614;28;20195;-49
2023/03/20 11:45:04;;;;;;;3.00;2.60;;;;;;;;;;6244391;28;20186;-51
2023/03/20 11:48:06;;;;;;;4.77;3.00;;;;;;;;;;6238585;28;20220;-53
2023/03/20 11:51:07;;;;;;;3.30;2.63;;;;;;;;;;6266449;28;20190;-54
2023/03/20 11:54:14;;;;;;;3.27;2.70;;;;;;;;;;6246779;28;20201;-51
2023/03/20 11:57:30;;;;;;;3.67;2.33;;;;;;;;;;6247573;28;20266;-48
2023/03/20 12:00:34;;;;;;;4.33;2.33;;;;;;;;;;6253598;28;20191;-51
2023/03/20 12:03:45;;;;;;;4.10;2.63;;;;;;;;;;6242534;28;20316;-50
2023/03/20 12:06:46;;;;;;;3.70;2.60;;;;;;;;;;6240655;28;20191;-52
2023/03/20 12:09:50;;;;;;;4.73;2.30;;;;;;;;;;6252809;28;20190;-47
2023/03/20 12:12:58;;;;;;;3.90;2.47;;;;;;;;;;6243269;28;20193;-49
2023/03/20 12:16:09;;;;;;;7.27;2.70;;;;;;;;;;6231965;28;20288;-54
2023/03/20 12:19:17;;;;;;;4.43;2.60;;;;;;;;;;6244274;28;20231;-53
2023/03/20 12:22:33;;;;;;;3.43;2.40;;;;;;;;;;6244777;28;20219;-51
2023/03/20 12:25:56;;;;;;;5.97;2.50;;;;;;;;;;6242862;28;20195;-54
2023/03/20 12:29:06;;;;;;;5.00;2.67;;;;;;;;;;6269791;28;20194;-53
2023/03/20 12:32:21;;;;;;;4.37;3.00;;;;;;;;;;6237994;28;20349;-55
2023/03/20 12:35:26;;;;;;;3.80;2.97;;;;;;;;;;6233590;28;20250;-55
2023/03/20 12:38:29;;;;;;;5.43;2.60;;;;;;;;;;6268648;28;20205;-52
2023/03/20 12:41:40;;;;;;;4.00;2.20;;;;;;;;;;6245732;28;20179;-55
2023/03/20 12:44:45;;;;;;;3.63;2.57;;;;;;;;;;6229498;28;20322;-53
2023/03/20 12:48:02;;;;;;;3.30;2.03;;;;;;;;;;6244690;28;20194;-53
2023/03/20 12:51:03;;;;;;;4.53;2.83;;;;;;;;;;6240697;28;20211;-48
2023/03/20 12:54:10;;;;;;;5.70;3.10;;;;;;;;;;6248912;28;20197;-51
2023/03/20 12:57:30;;;;;;;2.57;2.07;;;;;;;;;;6246074;28;20198;-57
2023/03/20 13:00:48;;;;;;;3.10;2.80;;;;;;;;;;6227561;28;20278;-55
2023/03/20 13:03:55;;;;;;;3.20;2.70;;;;;;;;;;6232026;28;20251;-51
2023/03/20 13:06:59;;;;;;;3.97;2.23;;;;;;;;;;6244504;28;20223;-50
2023/03/20 13:10:07;;;;;;;2.40;2.13;;;;;;;;;;6247884;28;20180;-54
2023/03/20 13:13:09;;;;;;;2.03;1.80;;;;;;;;;;6233299;28;20199;-53
2023/03/20 13:16:28;;;;;;;2.40;2.00;;;;;;;;;;6247552;28;20208;-55
2023/03/20 13:19:36;;;;;;;4.37;2.07;;;;;;;;;;6237780;28;20596;-53
2023/03/20 13:22:48;;;;;;;2.50;2.23;;;;;;;;;;6251833;28;20215;-55
2023/03/20 13:25:55;;;;;;;3.07;2.10;;;;;;;;;;6241614;28;20191;-54
2023/03/20 13:29:15;;;;;;;3.60;2.37;;;;;;;;;;6251243;28;20194;-55
2023/03/20 13:32:24;;;;;;;3.20;1.87;;;;;;;;;;6255963;28;20335;-54
2023/03/20 13:35:35;;;;;;;2.23;1.77;;;;;;;;;;6247457;28;20196;-55
2023/03/20 13:38:39;;;;;;;3.10;2.17;;;;;;;;;;6247522;28;20187;-52
2023/03/20 13:41:41;;;;;;;1.63;1.53;;;;;;;;;;6242598;28;20192;-54
2023/03/20 13:44:43;;;;;;;1.97;1.73;;;;;;;;;;6230497;28;20211;-53
2023/03/20 13:47:44;;;;;;;1.93;1.77;;;;;;;;;;6243212;28;20190;-52
2023/03/20 13:50:51;;;;;;;1.77;1.60;;;;;;;;;;6239346;28;20204;-54
2023/03/20 13:53:55;;;;;;;2.50;2.10;;;;;;;;;;6263518;28;20277;-54
2023/03/20 13:56:59;;;;;;;3.47;2.00;;;;;;;;;;6250155;28;20273;-53
2023/03/20 14:00:00;;;;;;;2.97;2.30;;;;;;;;;;6242737;28;20257;-54
2023/03/20 14:03:20;;;;;;;5.23;2.03;;;;;;;;;;6242390;28;20235;-56
2023/03/20 14:06:30;;;;;;;2.50;2.20;;;;;;;;;;6240968;28;20217;-55
2023/03/20 14:09:33;;;;;;;3.07;1.90;;;;;;;;;;6248845;28;20243;-57
2023/03/20 14:12:34;;;;;;;2.80;1.90;;;;;;;;;;6234694;28;20218;-56
2023/03/20 14:15:37;;;;;;;2.40;1.90;;;;;;;;;;6253125;28;20285;-55
2023/03/20 14:18:38;;;;;;;4.03;2.00;;;;;;;;;;6245377;28;20206;-48
2023/03/20 14:21:39;;;;;;;2.17;1.53;;;;;;;;;;6247045;28;20195;-49
2023/03/20 14:24:45;;;;;;;2.87;2.43;;;;;;;;;;6220951;28;20225;-56
2023/03/20 14:28:26;;;;;;;3.50;1.97;;;;;;;;;;6280105;28;20643;-52
2023/03/20 14:31:33;;;;;;;2.10;1.90;;;;;;;;;;6171920;28;20239;-55
2023/03/20 14:34:52;;;;;;;3.63;2.00;;;;;;;;;;6174187;28;20198;-56
2023/03/20 14:38:02;;;;;;;2.73;1.80;;;;;;;;;;6237640;28;20199;-50
2023/03/20 14:41:22;;;;;;;3.20;1.83;;;;;;;;;;6251059;28;20257;-49
2023/03/20 14:44:27;;;;;;;1.40;1.30;;;;;;;;;;6259552;28;20206;-51
2023/03/20 14:47:46;;;;;;;2.83;1.70;;;;;;;;;;6260271;28;20199;-51
2023/03/20 14:50:47;;;;;;;2.63;1.97;;;;;;;;;;6271862;28;20194;-53
2023/03/20 14:53:55;;;;;;;4.13;1.50;;;;;;;;;;6252136;28;20309;-52
2023/03/20 14:57:08;;;;;;;2.57;2.13;;;;;;;;;;6234869;28;20190;-50
2023/03/20 15:00:19;;;;;;;1.97;1.67;;;;;;;;;;6251202;28;20250;-50
2023/03/20 15:03:21;;;;;;;1.57;1.47;;;;;;;;;;6242774;28;20213;-51
2023/03/20 15:06:24;;;;;;;2.60;1.37;;;;;;;;;;6236460;28;20230;-48
2023/03/20 15:09:27;;;;;;;1.83;1.53;;;;;;;;;;6246068;28;20190;-55
2023/03/20 15:12:30;;;;;;;1.57;1.30;;;;;;;;;;6276890;28;20182;-57
2023/03/20 15:15:31;;;;;;;1.53;1.33;;;;;;;;;;6264012;28;20285;-57
2023/03/20 15:18:38;;;;;;;2.63;1.40;;;27.80;27.30;;;;;;6276718;28;20193;-56
2023/03/20 15:21:40;;;;;;;1.80;1.30;;;28.70;26.70;;;;;;6244532;28;20186;-56
2023/03/20 15:24:41;;;;;;;1.37;1.17;;;;;;;;;;6226742;28;20238;-55
2023/03/20 15:27:42;;;;;;;1.60;1.50;;;;;;;;;;6244756;28;20191;-55
2023/03/20 15:30:45;;;;;;;1.67;1.27;;;30.70;24.70;;;;;;6250456;28;20230;-53
2023/03/20 15:33:46;;;;;;;2.10;1.33;;;31.30;23.70;;;;;;6264979;28;20199;-55
2023/03/20 15:36:47;;;;;;;1.20;1.10;;;31.60;23.70;;;;;;6227543;28;20257;-48
2023/03/20 15:39:55;;;;;;;1.67;1.00;;;31.40;23.30;;;;;;6239058;28;20197;-53
2023/03/20 15:42:58;;;;;;;1.50;1.20;;;30.30;24.30;;;;;;6247818;28;20214;-53
2023/03/20 15:45:58;;;;;;;2.10;1.40;;;29.70;24.70;;;;;;6246798;28;20252;-47
2023/03/20 15:48:59;;;;;;;1.50;1.27;;;28.90;25.40;;;;;;6232201;28;20190;-48
2023/03/20 15:52:04;;;;;;;1.70;1.33;;;28.80;25.50;;;;;;6225694;28;20214;-55
2023/03/20 15:55:11;;;;;;;3.07;1.40;;;28.90;25.40;;;;;;6242467;28;20198;-55
2023/03/20 15:58:13;;;;;;;2.77;1.40;;;28.90;26.00;;;;;;6263033;28;20214;-52
2023/03/20 16:01:19;;;;;;;2.27;1.57;;;29.00;25.40;;;;;;6226562;28;20226;-49
2023/03/20 16:04:20;;;;;;;3.17;1.40;;;;;;;;;;6240126;28;20222;-52
2023/03/20 16:07:22;;;;;;;3.20;1.30;;;;;;;;;;6230249;28;20182;-50
2023/03/20 16:10:34;;;;;;;1.47;1.37;;;;;;;;;;6257940;28;20183;-53
2023/03/20 16:13:40;;;;;;;3.83;1.40;;;;;;;;;;6252250;28;20206;-53
2023/03/20 16:16:41;;;;;;;2.40;1.63;;;;;;;;;;6238094;28;20282;-53
2023/03/20 16:19:43;;;;;;;1.90;1.70;;;;;;;;;;6265066;28;20194;-51
2023/03/20 16:22:45;;;;;;;2.23;1.60;;;;;;;;;;6225177;28;20211;-55
2023/03/20 16:25:46;;;;;;;3.13;1.60;;;;;;;;;;6247013;28;20190;-54
2023/03/20 16:28:49;;;;;;;2.23;1.93;;;;;;;;;;6249364;28;20273;-55
2023/03/20 16:31:56;;;;;;;1.83;1.73;;;;;;;;;;6241076;28;20242;-55
2023/03/20 16:34:58;;;;;;;1.87;1.70;;;;;;;;;;6238216;28;20187;-52
2023/03/20 16:38:00;;;;;;;4.37;2.10;;;;;;;;;;6243754;28;20191;-51
2023/03/20 16:41:19;;;;;;;2.47;2.00;;;;;;;;;;6243179;28;20206;-55
2023/03/20 16:44:22;;;;;;;4.13;2.53;;;;;;;;;;6238984;28;20261;-53
2023/03/20 16:47:34;;;;;;;2.77;1.90;;;;;;;;;;6246723;28;20188;-50
2023/03/20 16:50:37;;;;;;;3.90;2.40;;;;;;;;;;6247395;28;20279;-53
2023/03/20 16:53:44;;;;;;;3.70;2.53;;;;;;;;;;6245698;28;20257;-52
2023/03/20 16:56:51;;;;;;;3.33;2.33;;;;;;;;;;6255321;28;20191;-52
2023/03/20 16:59:56;;;;;;;2.57;2.37;;;;;;;;;;6245318;28;20197;-53
2023/03/20 17:03:05;;;;;;;3.50;2.40;;;;;;;;;;6252606;28;20221;-49
2023/03/20 17:06:09;;;;;;;6.17;2.50;;;;;;;;;;6247328;28;20267;-50
2023/03/20 17:09:14;;;;;;;3.13;2.67;;;;;;;;;;6273924;28;20210;-49
2023/03/20 17:12:16;;;;;;;4.90;3.07;;;;;;;;;;6245592;28;20867;-46
2023/03/20 17:15:20;;;;;;;3.40;2.87;;;;;;;;;;6245179;28;20197;-53
2023/03/20 17:18:22;;;;;;;4.33;2.90;;;;;;;;;;6226008;28;20211;-52
2023/03/20 17:21:24;;;;;;;3.80;3.30;;;;;;;;;;6253256;28;20197;-51
2023/03/20 17:24:25;;;;;;;2.93;2.57;;;;;;;;;;6263152;28;20275;-53
2023/03/20 17:27:27;;;;;;;4.37;2.50;;;;;;;;;;6256758;28;20248;-50
2023/03/20 17:30:28;;;;;;;4.03;2.80;;;;;;;;;;6234579;28;20281;-50
2023/03/20 17:33:29;;;;;;;3.17;2.87;;;;;;;;;;6225341;28;20214;-51
2023/03/20 17:36:33;;;;;;;6.57;3.23;;;;;;;;;;6212721;28;20216;-50
2023/03/20 17:39:34;;;;;;;3.40;2.70;;;;;;;;;;6227779;28;20252;-51
2023/03/20 17:42:38;;;;;;;3.13;2.90;;;;;;;;;;6253820;28;20237;-53
2023/03/20 17:45:39;;;;;;;3.70;2.97;;;;;;;;;;6232014;28;20195;-52
2023/03/20 17:48:40;;;;;;;3.27;2.67;;;;;;;;;;6225846;28;20190;-52
2023/03/20 17:51:42;;;;;;;4.57;3.13;;;;;;;;;;6262006;28;20194;-53
2023/03/20 17:54:45;;;;;;;3.27;2.93;;;;;;;;;;6247073;28;20194;-49
2023/03/20 17:57:47;;;;;;;5.20;2.93;;;;;;;;;;6245484;28;20281;-51
2023/03/20 18:00:49;;;;;;;4.53;2.83;;;;;;;;;;6258192;28;20274;-51